Hartford, Michigan
Current Conditions -  °F | °C
As of 7:54 AM on Saturday 01 Nov 2014 (Local Time) from KLWA Reporting Station
Clear Clear  
Wind Chill: 21°   Ceiling: Unl
Heat Index: 28°   Visibility: 10mi
Dew Point: 20°   Wind: 6mph
Humidity: 74%   Direction: 20°NNE
Pressure: 30.39"   Gusts: NA
Location:  42.21°N, 86.17°W
Report Text: KLWA 011154Z AUTO 02005KT 10SM CLR M02/M07 A3039 RMK AO2 T10251066
Loading
Personal Weather Stations






























Interactive Weather Map New forecast layout! Learn more

10-Day Weather Forecast

Advertisements
Track Severe Weather on mobile